sensor_id;sensor_type;location;lat;lon;timestamp;P1;P2;P0
74430;PMS7003;62863;52.062;23.764;2023-11-25T00:01:13;10.8;10;7
74430;PMS7003;62863;52.062;23.764;2023-11-25T00:06:13;14.2;11.6;7.2
74430;PMS7003;62863;52.062;23.764;2023-11-25T00:11:23;14;12.2;7.6
74430;PMS7003;62863;52.062;23.764;2023-11-25T00:16:34;10.5;10;6.8
74430;PMS7003;62863;52.062;23.764;2023-11-25T00:21:55;11.6;9.8;7
74430;PMS7003;62863;52.062;23.764;2023-11-25T00:26:23;12.8;9.2;6.8
74430;PMS7003;62863;52.062;23.764;2023-11-25T00:31:53;15;11.4;7.6
74430;PMS7003;62863;52.062;23.764;2023-11-25T00:36:57;8.6;8.4;5.8
74430;PMS7003;62863;52.062;23.764;2023-11-25T00:41:55;9.4;8.6;5.8
74430;PMS7003;62863;52.062;23.764;2023-11-25T00:46:33;9.6;7.2;4.6
74430;PMS7003;62863;52.062;23.764;2023-11-25T00:51:53;10.4;9;6.4
74430;PMS7003;62863;52.062;23.764;2023-11-25T00:56:37;12;10.6;6.4
74430;PMS7003;62863;52.062;23.764;2023-11-25T01:01:55;12.4;10.6;7.6
74430;PMS7003;62863;52.062;23.764;2023-11-25T01:06:35;11.8;9.6;6.8
74430;PMS7003;62863;52.062;23.764;2023-11-25T01:11:57;8.8;6.8;5.8
74430;PMS7003;62863;52.062;23.764;2023-11-25T01:16:23;11;8.3;6.3
74430;PMS7003;62863;52.062;23.764;2023-11-25T01:21:43;11;9.4;6.8
74430;PMS7003;62863;52.062;23.764;2023-11-25T01:26:57;10.4;9.4;6.2
74430;PMS7003;62863;52.062;23.764;2023-11-25T01:31:45;9;7.8;6.2
74430;PMS7003;62863;52.062;23.764;2023-11-25T01:36:23;9.2;8.2;5.8
74430;PMS7003;62863;52.062;23.764;2023-11-25T01:41:13;11.2;9;5.8
74430;PMS7003;62863;52.062;23.764;2023-11-25T01:46:26;13.4;9.4;6.6
74430;PMS7003;62863;52.062;23.764;2023-11-25T01:51:37;11.2;10.8;7.4
74430;PMS7003;62863;52.062;23.764;2023-11-25T01:56:23;10;8.4;5.8
74430;PMS7003;62863;52.062;23.764;2023-11-25T02:01:13;11.2;9.2;6.2
74430;PMS7003;62863;52.062;23.764;2023-11-25T02:06:55;12.6;9.4;7.2
74430;PMS7003;62863;52.062;23.764;2023-11-25T02:11:59;10.8;8.8;6.6
74430;PMS7003;62863;52.062;23.764;2023-11-25T02:16:57;12.8;10.5;7.5
74430;PMS7003;62863;52.062;23.764;2023-11-25T02:21:58;12.8;10;7.6
74430;PMS7003;62863;52.062;23.764;2023-11-25T02:26:57;10.4;8.6;5.2
74430;PMS7003;62863;52.062;23.764;2023-11-25T02:31:57;10;8.8;6.8
74430;PMS7003;62863;52.062;23.764;2023-11-25T02:36:57;10.4;8.4;6
74430;PMS7003;62863;52.062;23.764;2023-11-25T02:41:37;10.8;9.6;6.6
74430;PMS7003;62863;52.062;23.764;2023-11-25T02:46:55;12.4;9.8;6.8
74430;PMS7003;62863;52.062;23.764;2023-11-25T02:51:57;11.2;9.8;6.8
74430;PMS7003;62863;52.062;23.764;2023-11-25T02:56:43;10.6;9;6.8
74430;PMS7003;62863;52.062;23.764;2023-11-25T03:01:57;12;9.4;6.4
74430;PMS7003;62863;52.062;23.764;2023-11-25T03:06:13;10.6;8.2;7
74430;PMS7003;62863;52.062;23.764;2023-11-25T03:11:57;11.4;9;6
74430;PMS7003;62863;52.062;23.764;2023-11-25T03:16:14;10.8;9.5;7.3
74430;PMS7003;62863;52.062;23.764;2023-11-25T03:21:23;14;11.6;7.6
74430;PMS7003;62863;52.062;23.764;2023-11-25T03:26:25;12.6;9.6;6.8
74430;PMS7003;62863;52.062;23.764;2023-11-25T03:31:29;12;9;6.4
74430;PMS7003;62863;52.062;23.764;2023-11-25T03:36:23;13.4;12;7.6
74430;PMS7003;62863;52.062;23.764;2023-11-25T03:41:55;13.4;9.6;6.6
74430;PMS7003;62863;52.062;23.764;2023-11-25T03:46:42;13.8;11.8;8.4
74430;PMS7003;62863;52.062;23.764;2023-11-25T03:51:39;11.2;9.2;7
74430;PMS7003;62863;52.062;23.764;2023-11-25T03:56:57;11.4;9.8;6.4
74430;PMS7003;62863;52.062;23.764;2023-11-25T04:01:23;10;8.8;6.2
74430;PMS7003;62863;52.062;23.764;2023-11-25T04:06:35;11.8;10.4;8.2
74430;PMS7003;62863;52.062;23.764;2023-11-25T04:11:57;13.8;11.2;6.8
74430;PMS7003;62863;52.062;23.764;2023-11-25T04:16:37;13.2;11.8;7.2
74430;PMS7003;62863;52.062;23.764;2023-11-25T04:21:23;13.3;9.8;7.3
74430;PMS7003;62863;52.062;23.764;2023-11-25T04:26:53;11;10.6;7
74430;PMS7003;62863;52.062;23.764;2023-11-25T04:31:23;12.2;9.6;8
74430;PMS7003;62863;52.062;23.764;2023-11-25T04:36:35;13.2;11.6;7.8
74430;PMS7003;62863;52.062;23.764;2023-11-25T04:41:14;11.2;9.8;7.6
74430;PMS7003;62863;52.062;23.764;2023-11-25T04:46:55;10.6;9.8;7.6
74430;PMS7003;62863;52.062;23.764;2023-11-25T04:51:56;17.8;16.2;11
74430;PMS7003;62863;52.062;23.764;2023-11-25T04:56:35;18.2;15;11.6
74430;PMS7003;62863;52.062;23.764;2023-11-25T05:01:24;15.6;14;10.6
74430;PMS7003;62863;52.062;23.764;2023-11-25T05:06:37;16.6;13.6;9.8
74430;PMS7003;62863;52.062;23.764;2023-11-25T05:11:36;13.2;10.6;7.6
74430;PMS7003;62863;52.062;23.764;2023-11-25T05:16:27;14.4;12.6;8.6
74430;PMS7003;62863;52.062;23.764;2023-11-25T05:21:55;22.3;15.5;10.5
74430;PMS7003;62863;52.062;23.764;2023-11-25T05:26:56;14.2;12.4;9.2
74430;PMS7003;62863;52.062;23.764;2023-11-25T05:31:54;15;14.2;9.8
74430;PMS7003;62863;52.062;23.764;2023-11-25T05:36:32;14.4;11.6;8.8
74430;PMS7003;62863;52.062;23.764;2023-11-25T05:41:58;12.8;10.8;7.8
74430;PMS7003;62863;52.062;23.764;2023-11-25T05:46:54;14;12;7.4
74430;PMS7003;62863;52.062;23.764;2023-11-25T05:51:54;12.6;10.4;7.4
74430;PMS7003;62863;52.062;23.764;2023-11-25T05:56:24;19;15.8;11.4
74430;PMS7003;62863;52.062;23.764;2023-11-25T06:01:54;20.4;16.4;10.8
74430;PMS7003;62863;52.062;23.764;2023-11-25T06:06:38;20.2;17;11.6
74430;PMS7003;62863;52.062;23.764;2023-11-25T06:11:58;15.6;14.2;10
74430;PMS7003;62863;52.062;23.764;2023-11-25T06:16:14;19.4;16.2;12
74430;PMS7003;62863;52.062;23.764;2023-11-25T06:21:42;21.8;17.5;13
74430;PMS7003;62863;52.062;23.764;2023-11-25T06:26:58;23.4;19.8;12.2
74430;PMS7003;62863;52.062;23.764;2023-11-25T06:31:24;19.4;15;10.6
74430;PMS7003;62863;52.062;23.764;2023-11-25T06:36:14;27.8;22.6;15.4
74430;PMS7003;62863;52.062;23.764;2023-11-25T06:41:54;29;26;18.4
74430;PMS7003;62863;52.062;23.764;2023-11-25T06:46:36;31.6;27.2;18.2
74430;PMS7003;62863;52.062;23.764;2023-11-25T06:51:22;29.2;25;15.8
74430;PMS7003;62863;52.062;23.764;2023-11-25T06:56:36;29;23.8;15.6
74430;PMS7003;62863;52.062;23.764;2023-11-25T07:01:42;21.2;18.4;13.2
74430;PMS7003;62863;52.062;23.764;2023-11-25T07:06:54;23;20.2;14
74430;PMS7003;62863;52.062;23.764;2023-11-25T07:11:16;22.4;18;12
74430;PMS7003;62863;52.062;23.764;2023-11-25T07:16:56;22.8;17.2;12
74430;PMS7003;62863;52.062;23.764;2023-11-25T07:21:24;21.8;17;13.3
74430;PMS7003;62863;52.062;23.764;2023-11-25T07:26:28;20.4;16.6;12
74430;PMS7003;62863;52.062;23.764;2023-11-25T07:31:24;19.2;14;11
74430;PMS7003;62863;52.062;23.764;2023-11-25T07:36:36;25.6;18.8;13.6
74430;PMS7003;62863;52.062;23.764;2023-11-25T07:41:26;31.4;28.2;18.8
74430;PMS7003;62863;52.062;23.764;2023-11-25T07:46:58;31.4;26;18.8
74430;PMS7003;62863;52.062;23.764;2023-11-25T07:51:24;40.4;36.2;23.2
74430;PMS7003;62863;52.062;23.764;2023-11-25T07:56:44;44.6;36.8;23.8
74430;PMS7003;62863;52.062;23.764;2023-11-25T08:01:58;49.8;39.4;24.2
74430;PMS7003;62863;52.062;23.764;2023-11-25T08:06:14;71.6;53.6;32.2
74430;PMS7003;62863;52.062;23.764;2023-11-25T08:11:20;59.8;47.4;29.2
74430;PMS7003;62863;52.062;23.764;2023-11-25T08:16:22;58;48;30.2
74430;PMS7003;62863;52.062;23.764;2023-11-25T08:21:14;41.3;31;20.5
74430;PMS7003;62863;52.062;23.764;2023-11-25T08:26:17;40.4;36.4;23
74430;PMS7003;62863;52.062;23.764;2023-11-25T08:31:16;27.4;25.2;16.8
74430;PMS7003;62863;52.062;23.764;2023-11-25T08:36:14;30.2;25.8;16.8
74430;PMS7003;62863;52.062;23.764;2023-11-25T08:41:58;30;26.4;18.8
74430;PMS7003;62863;52.062;23.764;2023-11-25T08:46:44;28.6;25;16.6
74430;PMS7003;62863;52.062;23.764;2023-11-25T08:51:56;29.6;22.8;16.6
74430;PMS7003;62863;52.062;23.764;2023-11-25T08:56:42;42.4;35.2;23.2
74430;PMS7003;62863;52.062;23.764;2023-11-25T09:01:56;36.2;32;23.4
74430;PMS7003;62863;52.062;23.764;2023-11-25T09:06:58;34.6;30;21.8
74430;PMS7003;62863;52.062;23.764;2023-11-25T09:11:54;31.4;26.8;18.6
74430;PMS7003;62863;52.062;23.764;2023-11-25T09:16:36;27.4;24.4;15.8
74430;PMS7003;62863;52.062;23.764;2023-11-25T09:21:40;34.8;29;19.8
74430;PMS7003;62863;52.062;23.764;2023-11-25T09:26:56;34.3;31.5;20.3
74430;PMS7003;62863;52.062;23.764;2023-11-25T09:31:38;30.8;27.2;19.8
74430;PMS7003;62863;52.062;23.764;2023-11-25T09:36:36;36.2;31.8;20.8
74430;PMS7003;62863;52.062;23.764;2023-11-25T09:41:40;70.8;56;34.2
74430;PMS7003;62863;52.062;23.764;2023-11-25T09:46:54;45.6;37.8;25.4
74430;PMS7003;62863;52.062;23.764;2023-11-25T09:51:14;43.2;35.8;24.6
74430;PMS7003;62863;52.062;23.764;2023-11-25T09:56:24;54.8;44.2;28.4
74430;PMS7003;62863;52.062;23.764;2023-11-25T10:01:14;51.2;43;28.4
74430;PMS7003;62863;52.062;23.764;2023-11-25T10:06:14;32;28;19.4
74430;PMS7003;62863;52.062;23.764;2023-11-25T10:11:24;28.6;23.4;17.2
74430;PMS7003;62863;52.062;23.764;2023-11-25T10:16:56;31.2;27.2;19.2
74430;PMS7003;62863;52.062;23.764;2023-11-25T10:21:38;20.6;16.4;12
74430;PMS7003;62863;52.062;23.764;2023-11-25T10:26:38;20.5;17.3;12
74430;PMS7003;62863;52.062;23.764;2023-11-25T10:31:39;27.4;24.6;18.8
74430;PMS7003;62863;52.062;23.764;2023-11-25T10:36:14;26;22.8;15.8
74430;PMS7003;62863;52.062;23.764;2023-11-25T10:41:38;25.4;22;14.2
74430;PMS7003;62863;52.062;23.764;2023-11-25T10:46:36;34.4;30.4;21
74430;PMS7003;62863;52.062;23.764;2023-11-25T10:51:36;30.2;27;18
74430;PMS7003;62863;52.062;23.764;2023-11-25T10:56:34;27.4;23.8;16.4
74430;PMS7003;62863;52.062;23.764;2023-11-25T11:01:56;21.4;19;11.6
74430;PMS7003;62863;52.062;23.764;2023-11-25T11:06:29;18.6;15.6;12.8
74430;PMS7003;62863;52.062;23.764;2023-11-25T11:11:39;14.4;11.8;8.6
74430;PMS7003;62863;52.062;23.764;2023-11-25T11:16:26;16;14.2;10.6
74430;PMS7003;62863;52.062;23.764;2023-11-25T11:21:58;21;18.2;12.4
74430;PMS7003;62863;52.062;23.764;2023-11-25T11:26:41;17.5;15.3;11.3
74430;PMS7003;62863;52.062;23.764;2023-11-25T11:31:59;19.6;17;11.8
74430;PMS7003;62863;52.062;23.764;2023-11-25T11:36:38;19.8;16.8;12.4
74430;PMS7003;62863;52.062;23.764;2023-11-25T11:41:29;23.6;19.4;12.8
74430;PMS7003;62863;52.062;23.764;2023-11-25T11:46:24;28;24;16.4
74430;PMS7003;62863;52.062;23.764;2023-11-25T11:51:59;27.8;24;16.2
74430;PMS7003;62863;52.062;23.764;2023-11-25T11:56:57;31.6;27.8;18.6
74430;PMS7003;62863;52.062;23.764;2023-11-25T12:01:28;34.6;30.4;19.4
74430;PMS7003;62863;52.062;23.764;2023-11-25T12:06:58;25.4;19.8;13
74430;PMS7003;62863;52.062;23.764;2023-11-25T12:11:42;27.6;22.4;15.6
74430;PMS7003;62863;52.062;23.764;2023-11-25T12:16:30;21;15.6;11
74430;PMS7003;62863;52.062;23.764;2023-11-25T12:21:42;13;11.6;8.2
74430;PMS7003;62863;52.062;23.764;2023-11-25T12:26:38;14.3;11.5;7.5
74430;PMS7003;62863;52.062;23.764;2023-11-25T12:31:14;20.4;17.2;13.6
74430;PMS7003;62863;52.062;23.764;2023-11-25T12:36:56;27.8;24.2;15.4
74430;PMS7003;62863;52.062;23.764;2023-11-25T12:41:24;22.2;20.2;13.6
74430;PMS7003;62863;52.062;23.764;2023-11-25T12:46:40;20.4;18.2;13.8
74430;PMS7003;62863;52.062;23.764;2023-11-25T12:51:14;27.2;21.8;15.6
74430;PMS7003;62863;52.062;23.764;2023-11-25T12:57:00;24.4;20.4;14.6
74430;PMS7003;62863;52.062;23.764;2023-11-25T13:02:01;24.8;22.2;15.4
74430;PMS7003;62863;52.062;23.764;2023-11-25T13:06:28;18;15.2;10.6
74430;PMS7003;62863;52.062;23.764;2023-11-25T13:11:14;20.8;17.2;11.8
74430;PMS7003;62863;52.062;23.764;2023-11-25T13:16:24;17.4;14.4;10.2
74430;PMS7003;62863;52.062;23.764;2023-11-25T13:21:14;16.4;14.6;11
74430;PMS7003;62863;52.062;23.764;2023-11-25T13:26:58;17;13.5;9.8
74430;PMS7003;62863;52.062;23.764;2023-11-25T13:31:56;15.6;14.6;10
74430;PMS7003;62863;52.062;23.764;2023-11-25T13:36:14;17.4;15.6;12
74430;PMS7003;62863;52.062;23.764;2023-11-25T13:41:54;25.4;20.8;14.6
74430;PMS7003;62863;52.062;23.764;2023-11-25T13:46:14;30.8;27.6;20.8
74430;PMS7003;62863;52.062;23.764;2023-11-25T13:51:40;22.4;19.2;12.8
74430;PMS7003;62863;52.062;23.764;2023-11-25T13:56:24;16.6;13.8;9.8
74430;PMS7003;62863;52.062;23.764;2023-11-25T14:01:56;17.8;15.2;10
74430;PMS7003;62863;52.062;23.764;2023-11-25T14:06:24;13;11.6;8
74430;PMS7003;62863;52.062;23.764;2023-11-25T14:11:56;21.8;18.6;12.6
74430;PMS7003;62863;52.062;23.764;2023-11-25T14:16:38;24.4;19.8;14
74430;PMS7003;62863;52.062;23.764;2023-11-25T14:22:00;19.2;14.4;11.2
74430;PMS7003;62863;52.062;23.764;2023-11-25T14:26:42;20.8;17.8;13.6
74430;PMS7003;62863;52.062;23.764;2023-11-25T14:31:44;20;18.8;12.5
74430;PMS7003;62863;52.062;23.764;2023-11-25T14:37:00;17.2;15.6;11.8
74430;PMS7003;62863;52.062;23.764;2023-11-25T14:41:30;24.6;22.6;15.4
74430;PMS7003;62863;52.062;23.764;2023-11-25T14:46:14;25.6;22.2;15.6
74430;PMS7003;62863;52.062;23.764;2023-11-25T14:51:58;33.6;30.2;20.8
74430;PMS7003;62863;52.062;23.764;2023-11-25T14:56:38;26.6;24.8;18.2
74430;PMS7003;62863;52.062;23.764;2023-11-25T15:01:22;21.4;18.4;12.8
74430;PMS7003;62863;52.062;23.764;2023-11-25T15:06:14;28.8;25.8;17.6
74430;PMS7003;62863;52.062;23.764;2023-11-25T15:11:14;18.2;16;11.4
74430;PMS7003;62863;52.062;23.764;2023-11-25T15:16:58;21.2;19.2;14.2
74430;PMS7003;62863;52.062;23.764;2023-11-25T15:21:58;30.6;27.8;19.4
74430;PMS7003;62863;52.062;23.764;2023-11-25T15:26:16;32.2;26.8;17
74430;PMS7003;62863;52.062;23.764;2023-11-25T15:32:00;24.5;22;16.8
74430;PMS7003;62863;52.062;23.764;2023-11-25T15:36:58;26.8;22.4;15.2
74430;PMS7003;62863;52.062;23.764;2023-11-25T15:41:58;26;20.8;14.2
74430;PMS7003;62863;52.062;23.764;2023-11-25T15:46:56;23.2;20.4;14.4
74430;PMS7003;62863;52.062;23.764;2023-11-25T15:51:28;22.8;19.6;14.2
74430;PMS7003;62863;52.062;23.764;2023-11-25T15:56:14;24.8;22.2;15
74430;PMS7003;62863;52.062;23.764;2023-11-25T16:01:58;24;22.2;15.8
74430;PMS7003;62863;52.062;23.764;2023-11-25T16:06:54;32;27.8;19.6
74430;PMS7003;62863;52.062;23.764;2023-11-25T16:11:54;35.2;30.6;20
74430;PMS7003;62863;52.062;23.764;2023-11-25T16:16:24;28.2;25.8;16.2
74430;PMS7003;62863;52.062;23.764;2023-11-25T16:21:58;28.8;23.4;17.8
74430;PMS7003;62863;52.062;23.764;2023-11-25T16:26:30;20.8;18.6;13.4
74430;PMS7003;62863;52.062;23.764;2023-11-25T16:31:14;22;17.8;12.5
74430;PMS7003;62863;52.062;23.764;2023-11-25T16:36:14;20;16.6;12.2
74430;PMS7003;62863;52.062;23.764;2023-11-25T16:41:14;16.6;14.8;11.2
74430;PMS7003;62863;52.062;23.764;2023-11-25T16:46:22;20.2;17;12.6
74430;PMS7003;62863;52.062;23.764;2023-11-25T16:51:58;22.6;19.2;14.6
74430;PMS7003;62863;52.062;23.764;2023-11-25T16:56:44;21.8;19.4;14.6
74430;PMS7003;62863;52.062;23.764;2023-11-25T17:01:30;19.8;18.8;13.4
74430;PMS7003;62863;52.062;23.764;2023-11-25T17:07:01;17.8;14.2;9.6
74430;PMS7003;62863;52.062;23.764;2023-11-25T17:11:14;17.4;14.6;10.8
74430;PMS7003;62863;52.062;23.764;2023-11-25T17:16:38;20.4;16;12.2
74430;PMS7003;62863;52.062;23.764;2023-11-25T17:21:36;21.2;14.8;10
74430;PMS7003;62863;52.062;23.764;2023-11-25T17:26:16;18;14.8;9.2
74430;PMS7003;62863;52.062;23.764;2023-11-25T17:31:14;14.3;11.5;7.8
74430;PMS7003;62863;52.062;23.764;2023-11-25T17:36:56;13.2;11.2;8
74430;PMS7003;62863;52.062;23.764;2023-11-25T17:41:27;15.8;12.8;8
74430;PMS7003;62863;52.062;23.764;2023-11-25T17:46:40;11.8;10;6.8
74430;PMS7003;62863;52.062;23.764;2023-11-25T17:52:00;12;8.2;6.2
74430;PMS7003;62863;52.062;23.764;2023-11-25T17:56:58;13;12;8
74430;PMS7003;62863;52.062;23.764;2023-11-25T18:01:58;12.2;10.4;7.8
74430;PMS7003;62863;52.062;23.764;2023-11-25T18:06:14;12.6;11.6;7.6
74430;PMS7003;62863;52.062;23.764;2023-11-25T18:11:24;17.2;12.6;8.4
74430;PMS7003;62863;52.062;23.764;2023-11-25T18:16:14;13.4;12;8.4
74430;PMS7003;62863;52.062;23.764;2023-11-25T18:21:14;17.6;14;9.6
74430;PMS7003;62863;52.062;23.764;2023-11-25T18:26:14;17;14;10.2
74430;PMS7003;62863;52.062;23.764;2023-11-25T18:31:56;14.8;12.5;9.8
74430;PMS7003;62863;52.062;23.764;2023-11-25T18:36:30;17.4;15.6;12.4
74430;PMS7003;62863;52.062;23.764;2023-11-25T18:41:16;21.5;16.5;11.8
74430;PMS7003;62863;52.062;23.764;2023-11-25T18:46:14;22.8;20.2;13.6
74430;PMS7003;62863;52.062;23.764;2023-11-25T18:51:58;20.2;17.2;12.8
74430;PMS7003;62863;52.062;23.764;2023-11-25T18:56:14;20.2;16;11.8
74430;PMS7003;62863;52.062;23.764;2023-11-25T19:01:38;19.3;16.5;11
74430;PMS7003;62863;52.062;23.764;2023-11-25T19:06:14;22.8;19;13.2
74430;PMS7003;62863;52.062;23.764;2023-11-25T19:11:56;20.6;17;12.6
74430;PMS7003;62863;52.062;23.764;2023-11-25T19:16:38;19.8;17.6;11.6
74430;PMS7003;62863;52.062;23.764;2023-11-25T19:22:00;16;14.2;11
74430;PMS7003;62863;52.062;23.764;2023-11-25T19:26:22;18.8;16.8;12.2
74430;PMS7003;62863;52.062;23.764;2023-11-25T19:31:40;14.6;14;9.4
74430;PMS7003;62863;52.062;23.764;2023-11-25T19:37:00;22.8;18.2;13.8
74430;PMS7003;62863;52.062;23.764;2023-11-25T19:41:14;20.6;17.2;12.6
74430;PMS7003;62863;52.062;23.764;2023-11-25T19:46:14;15.6;13.2;10.4
74430;PMS7003;62863;52.062;23.764;2023-11-25T19:51:14;18.8;15;10.6
74430;PMS7003;62863;52.062;23.764;2023-11-25T19:56:15;14.8;12;8.4
74430;PMS7003;62863;52.062;23.764;2023-11-25T20:01:24;17.2;14.8;9.8
74430;PMS7003;62863;52.062;23.764;2023-11-25T20:06:28;17;12.5;8.3
74430;PMS7003;62863;52.062;23.764;2023-11-25T20:11:42;19.4;16.4;11.8
74430;PMS7003;62863;52.062;23.764;2023-11-25T20:16:32;18;16;10.6
74430;PMS7003;62863;52.062;23.764;2023-11-25T20:21:14;18.6;15;10.8
74430;PMS7003;62863;52.062;23.764;2023-11-25T20:26:56;20;16.4;10.8
74430;PMS7003;62863;52.062;23.764;2023-11-25T20:31:14;20.4;16.2;11.6
74430;PMS7003;62863;52.062;23.764;2023-11-25T20:36:36;18.2;16;10.8
74430;PMS7003;62863;52.062;23.764;2023-11-25T20:41:14;17.4;15;11
74430;PMS7003;62863;52.062;23.764;2023-11-25T20:46:56;18;15.2;9.8
74430;PMS7003;62863;52.062;23.764;2023-11-25T20:51:38;18.2;16.2;11.4
74430;PMS7003;62863;52.062;23.764;2023-11-25T20:56:56;19.6;17.6;13.2
74430;PMS7003;62863;52.062;23.764;2023-11-25T21:01:24;22;19;13.6
74430;PMS7003;62863;52.062;23.764;2023-11-25T21:06:44;28.5;23.8;16
74430;PMS7003;62863;52.062;23.764;2023-11-25T21:11:56;27.2;24;14.8
74430;PMS7003;62863;52.062;23.764;2023-11-25T21:16:14;25.2;22.2;15.2
74430;PMS7003;62863;52.062;23.764;2023-11-25T21:21:14;19;17.4;12.8
74430;PMS7003;62863;52.062;23.764;2023-11-25T21:26:14;22.8;18;13.4
74430;PMS7003;62863;52.062;23.764;2023-11-25T21:31:14;20;15;10.8
74430;PMS7003;62863;52.062;23.764;2023-11-25T21:36:24;19;16.8;10.8
74430;PMS7003;62863;52.062;23.764;2023-11-25T21:41:14;17.8;14.4;10.8
74430;PMS7003;62863;52.062;23.764;2023-11-25T21:46:56;17.2;16;11.8
74430;PMS7003;62863;52.062;23.764;2023-11-25T21:51:32;17.4;16.2;11.4
74430;PMS7003;62863;52.062;23.764;2023-11-25T21:56:44;19;15.4;10.6
74430;PMS7003;62863;52.062;23.764;2023-11-25T22:01:54;18.4;14.2;10
74430;PMS7003;62863;52.062;23.764;2023-11-25T22:07:00;17.5;16;11.5
74430;PMS7003;62863;52.062;23.764;2023-11-25T22:11:54;20.4;16.2;11.8
74430;PMS7003;62863;52.062;23.764;2023-11-25T22:16:58;18.4;16.2;11.2
74430;PMS7003;62863;52.062;23.764;2023-11-25T22:22:00;57.8;47.4;33.6
74430;PMS7003;62863;52.062;23.764;2023-11-25T22:27:00;22.4;18.8;14
74430;PMS7003;62863;52.062;23.764;2023-11-25T22:31:38;15;13.4;9.6
74430;PMS7003;62863;52.062;23.764;2023-11-25T22:36:54;18.6;16.4;11
74430;PMS7003;62863;52.062;23.764;2023-11-25T22:41:56;20.2;15.8;11.2
74430;PMS7003;62863;52.062;23.764;2023-11-25T22:46:36;19;14.2;9.4
74430;PMS7003;62863;52.062;23.764;2023-11-25T22:51:22;18.4;16;10.8
74430;PMS7003;62863;52.062;23.764;2023-11-25T22:56:56;17.6;14.6;10.6
74430;PMS7003;62863;52.062;23.764;2023-11-25T23:01:24;18.8;15.4;10.4
74430;PMS7003;62863;52.062;23.764;2023-11-25T23:06:14;14.8;12.8;10.5
74430;PMS7003;62863;52.062;23.764;2023-11-25T23:11:14;16.8;14.6;10
74430;PMS7003;62863;52.062;23.764;2023-11-25T23:16:34;15.2;13.6;9
74430;PMS7003;62863;52.062;23.764;2023-11-25T23:21:14;20.6;17.4;12
74430;PMS7003;62863;52.062;23.764;2023-11-25T23:26:58;18.4;14.8;11.2
74430;PMS7003;62863;52.062;23.764;2023-11-25T23:31:42;19.4;16.4;11.4
74430;PMS7003;62863;52.062;23.764;2023-11-25T23:36:40;19;16.8;12.2
74430;PMS7003;62863;52.062;23.764;2023-11-25T23:41:42;19.4;15.6;11.2
74430;PMS7003;62863;52.062;23.764;2023-11-25T23:46:38;22;16.8;10.8
74430;PMS7003;62863;52.062;23.764;2023-11-25T23:51:16;14.4;12.8;10.2
74430;PMS7003;62863;52.062;23.764;2023-11-25T23:56:38;18.6;14.6;10.2
